Pagrindinis puslapis
METAR-TAF:

METAR-TAF

Oro uostai :

Macaé, Rio de Janeiro, Brazilija

platuma: 22-21S, ilguma: 041-46W, Aukštis: 2 m

Dabartinis oras

Ataskaita buvo paskelbta 1 valandą ir 7 minutes, ne 20:00 UTC
Vėjas 8 kt iš Rytų/Šiaurės Rytų
Temperatūra 25°C
Drėgmė 89%
Slėgis 1008 hPa
Matomumas: 8000 m
Mažai debesys ne aukštis 1000 ft
Išsisklaidę debesys ne aukštis 4000 ft
Apsiniaukę ne aukštis 7000 ft
lietus

METAR: SBME 122000Z 06008KT 8000 -RA FEW010 SCT040 OVC070 25/23 Q1008

Laikas: 18:07 (21:07 UTC)

Prognozė

Ataskaita buvo paskelbta 4 valandos ir 10 minutes, ne 16:57 UTC
Prognozė galioja nuo 12 metu 18 UTC su 13 metu 06 UTC
Vėjas 7 kt iš Rytų
Matomumas: 7000 m
Išsisklaidę debesys ne aukštis 1200 ft
Su prošvaistėmis ne aukštis 3000 ft
Laikinai
nuo 12 metu 19 UTC su 12 metu 22 UTC
Matomumas: 5000 m
lietus
Tapsmas
nuo 12 metu 23 UTC su 13 metu 01 UTC
Vėjas 5 kt iš Šiaurės/Šiaurės Rytų

TAF: SBME 121657Z 1218/1306 08007KT 7000 SCT012 BKN030 TX26/1218Z TN23/1306Z TEMPO 1219/1222 5000 RA BECMG 1223/1301 02005KT RMK PHQ

Orai ataskaitas ir orų prognozės (METAR, TAF).

turimą stotys yra geltonos ir raudonos taškus žemėlapyje.

Perkelti pele per norėdami pamatyti stoties vardą.

Tada spustelėkite, norėdami matyti oro stebėjimo ir prognozės.

Norėdami pakeisti žemėlapį: spustelėkite ant žalios mygtukų su juodo kryžiaus žemyn,; žalią mygtuką su brūkšneliu, jei norite nutolinti; arba žalių rodyklių gretimoms žemėlapius.


METAR-TAF: